Tyner, New York
Current Conditions -  °F | °C
As of 8:53 AM on Friday 28 Nov 2014 (Local Time) from KBGM Reporting Station
Clear Clear  
Wind Chill: 26°   Ceiling: Unl
Heat Index: 35°   Visibility: 10mi
Dew Point: 14°   Wind: 14mph
Humidity: 42%   Direction: 310°NW
Pressure: 30.13"   Gusts: 20mph
Location:  42.4446°N, 75.6311°W
Report Text: KBGM 281353Z 31012G17KT 10SM CLR 02/M10 A3013 RMK AO2 SNE1254 SLP222 P0000 T00171100
Loading
Personal Weather Stations






























Interactive Weather Map New forecast layout! Learn more

10-Day Weather Forecast

Advertisements
Track Severe Weather on mobile